createdAt,value
2022-08-27T00:00:22.073Z,99532.81
2022-08-27T00:02:54.416Z,99524.75
2022-08-27T00:05:26.651Z,99527.25
2022-08-27T00:07:57.939Z,99524.81
2022-08-27T00:10:28.778Z,99532.47
2022-08-27T00:13:12.376Z,99523.81
2022-08-27T00:15:41.193Z,99521.94
2022-08-27T00:18:11.810Z,99530.63
2022-08-27T00:20:41.766Z,99527.00
2022-08-27T00:23:13.611Z,99530.47
2022-08-27T00:25:45.787Z,99527.53
2022-08-27T00:28:19.515Z,99532.59
2022-08-27T00:30:49.692Z,99529.97
2022-08-27T00:33:23.189Z,99533.47
2022-08-27T00:35:54.322Z,99535.41
2022-08-27T00:38:25.092Z,99530.22
2022-08-27T00:40:55.863Z,99528.94
2022-08-27T00:43:32.312Z,99522.31
2022-08-27T00:46:08.280Z,99533.56
2022-08-27T00:48:41.920Z,99535.87
2022-08-27T00:51:13.106Z,99533.56
2022-08-27T00:53:47.319Z,99529.94
2022-08-27T00:56:25.608Z,99525.69
2022-08-27T00:58:59.351Z,99530.78
2022-08-27T01:01:31.365Z,99534.19
2022-08-27T01:04:06.641Z,99532.91
2022-08-27T01:06:38.528Z,99542.59
2022-08-27T01:09:14.176Z,99537.41
2022-08-27T01:11:45.402Z,99540.62
2022-08-27T01:14:24.788Z,99543.03
2022-08-27T01:16:58.502Z,99543.47
2022-08-27T01:19:38.896Z,99555.38
2022-08-27T01:22:21.640Z,99550.06
2022-08-27T01:24:59.738Z,99559.44
2022-08-27T01:27:34.869Z,99553.41
2022-08-27T01:30:08.680Z,99560.50
2022-08-27T01:32:39.371Z,99548.09
2022-08-27T01:35:18.318Z,99550.87
2022-08-27T01:37:50.218Z,99554.13
2022-08-27T01:40:23.206Z,99553.56
2022-08-27T01:42:56.089Z,99560.28
2022-08-27T01:45:33.265Z,99560.41
2022-08-27T01:48:05.284Z,99561.00
2022-08-27T01:50:40.294Z,99560.25
2022-08-27T01:53:16.591Z,99554.75
2022-08-27T01:55:53.506Z,99562.25
2022-08-27T01:58:29.074Z,99559.75
2022-08-27T02:01:07.320Z,99566.84
2022-08-27T02:03:40.629Z,99563.12
2022-08-27T02:06:17.247Z,99558.94
2022-08-27T02:08:52.990Z,99564.63
2022-08-27T02:11:24.371Z,99562.84
2022-08-27T02:13:57.115Z,99557.41
2022-08-27T02:16:29.079Z,99564.34
2022-08-27T02:19:02.434Z,99565.75
2022-08-27T02:21:32.870Z,99554.88
2022-08-27T02:24:07.114Z,99558.84
2022-08-27T02:26:37.833Z,99554.88
2022-08-27T02:29:11.084Z,99564.66
2022-08-27T02:31:42.682Z,99554.13
2022-08-27T02:34:16.001Z,99557.34
2022-08-27T02:36:48.844Z,99550.38
2022-08-27T02:39:20.035Z,99549.94
2022-08-27T02:41:50.436Z,99546.97
2022-08-27T02:44:23.109Z,99546.81
2022-08-27T02:46:55.741Z,99548.88
2022-08-27T02:49:32.039Z,99552.66
2022-08-27T02:52:04.641Z,99552.03
2022-08-27T02:54:37.291Z,99544.59
2022-08-27T02:57:09.074Z,99553.75
2022-08-27T02:59:40.405Z,99551.31
2022-08-27T03:02:11.303Z,99548.00
2022-08-27T03:04:42.716Z,99549.59
2022-08-27T03:07:14.226Z,99546.56
2022-08-27T03:09:53.526Z,99546.25
2022-08-27T03:12:28.252Z,99545.78
2022-08-27T03:15:00.832Z,99550.16
2022-08-27T03:17:53.013Z,99552.34
2022-08-27T03:20:25.973Z,99558.63
2022-08-27T03:22:55.507Z,99553.47
2022-08-27T03:25:26.946Z,99561.28
2022-08-27T03:28:01.647Z,99554.13
2022-08-27T03:30:34.258Z,99558.44
2022-08-27T03:33:06.767Z,99555.78
2022-08-27T03:35:38.727Z,99562.81
2022-08-27T03:38:08.222Z,99554.75
2022-08-27T03:40:38.944Z,99553.75
2022-08-27T03:43:08.015Z,99551.56
2022-08-27T03:46:00.780Z,99559.97
2022-08-27T03:48:27.337Z,99550.97
2022-08-27T03:50:57.880Z,99553.31
2022-08-27T03:53:33.047Z,99550.97
2022-08-27T03:56:04.508Z,99558.97
2022-08-27T03:58:36.437Z,99557.53
2022-08-27T04:01:07.698Z,99554.88
2022-08-27T04:03:41.425Z,99555.97
2022-08-27T04:06:10.322Z,99562.78
2022-08-27T04:08:42.019Z,99561.25
2022-08-27T04:11:15.177Z,99562.91
2022-08-27T04:13:49.022Z,99567.06
2022-08-27T04:16:18.147Z,99565.63
2022-08-27T04:18:48.956Z,99561.09
2022-08-27T04:21:19.864Z,99561.06
2022-08-27T04:23:49.234Z,99567.06
2022-08-27T04:26:20.133Z,99563.03
2022-08-27T04:28:53.201Z,99567.37
2022-08-27T04:31:26.820Z,99564.03
2022-08-27T04:33:58.479Z,99571.19
2022-08-27T04:36:29.213Z,99569.53
2022-08-27T04:39:08.033Z,99565.63
2022-08-27T04:41:38.414Z,99564.22
2022-08-27T04:44:11.141Z,99561.66
2022-08-27T04:46:40.925Z,99562.75
2022-08-27T04:49:15.472Z,99567.97
2022-08-27T04:51:45.107Z,99563.72
2022-08-27T04:54:18.312Z,99562.03
2022-08-27T04:56:51.676Z,99564.44
2022-08-27T04:59:24.472Z,99568.78
2022-08-27T05:01:54.020Z,99560.09
2022-08-27T05:04:26.549Z,99564.72
2022-08-27T05:06:58.201Z,99566.00
2022-08-27T05:09:37.610Z,99579.19
2022-08-27T05:12:09.569Z,99575.22
2022-08-27T05:14:39.892Z,99570.00
2022-08-27T05:17:09.730Z,99566.13
2022-08-27T05:19:41.442Z,99568.41
2022-08-27T05:22:11.155Z,99563.81
2022-08-27T05:24:44.242Z,99564.28
2022-08-27T05:27:16.676Z,99565.81
2022-08-27T05:29:52.147Z,99564.66
2022-08-27T05:32:22.501Z,99562.94
2022-08-27T05:34:54.479Z,99555.84
2022-08-27T05:37:24.017Z,99564.41
2022-08-27T05:39:54.800Z,99559.53
2022-08-27T05:42:25.436Z,99560.84
2022-08-27T05:44:57.157Z,99564.19
2022-08-27T05:47:29.838Z,99562.94
2022-08-27T05:50:00.480Z,99557.47
2022-08-27T05:52:31.232Z,99553.00
2022-08-27T05:55:02.225Z,99562.78
2022-08-27T05:57:31.563Z,99568.28
2022-08-27T06:00:25.231Z,99564.72
2022-08-27T06:02:55.449Z,99562.75
2022-08-27T06:05:24.549Z,99560.50
2022-08-27T06:07:53.622Z,99566.31
2022-08-27T06:10:23.860Z,99567.63
2022-08-27T06:12:56.985Z,99561.50
2022-08-27T06:15:28.629Z,99567.78
2022-08-27T06:18:01.014Z,99560.97
2022-08-27T06:20:32.722Z,99565.00
2022-08-27T06:23:02.743Z,99565.72
2022-08-27T06:25:34.077Z,99566.31
2022-08-27T06:28:04.064Z,99572.63
2022-08-27T06:30:39.064Z,99566.69
2022-08-27T06:33:11.484Z,99573.87
2022-08-27T06:35:40.437Z,99584.38
2022-08-27T06:38:08.885Z,99579.75
2022-08-27T06:40:42.559Z,99590.28
2022-08-27T06:43:19.356Z,99591.03
2022-08-27T06:45:51.872Z,99584.84
2022-08-27T06:48:20.944Z,99593.09
2022-08-27T06:50:49.517Z,99588.53
2022-08-27T06:53:24.339Z,99585.75
2022-08-27T06:55:53.902Z,99586.03
2022-08-27T06:58:25.009Z,99588.69
2022-08-27T07:00:53.472Z,99591.38
2022-08-27T07:03:23.747Z,99585.88
2022-08-27T07:05:54.862Z,99590.44
2022-08-27T07:08:27.605Z,99594.28
2022-08-27T07:10:59.510Z,99591.81
2022-08-27T07:13:31.665Z,99592.53
2022-08-27T07:16:08.791Z,99595.38
2022-08-27T07:18:39.899Z,99595.22
2022-08-27T07:21:12.809Z,99602.06
2022-08-27T07:23:42.569Z,99605.78
2022-08-27T07:26:13.841Z,99601.28
2022-08-27T07:28:50.675Z,99610.16
2022-08-27T07:31:27.376Z,99606.47
2022-08-27T07:33:57.605Z,99609.50
2022-08-27T07:36:31.706Z,99604.63
2022-08-27T07:39:01.958Z,99612.00
2022-08-27T07:41:54.673Z,99611.31
2022-08-27T07:44:34.276Z,99610.81
2022-08-27T07:47:05.665Z,99608.66
2022-08-27T07:49:35.911Z,99613.31
2022-08-27T07:52:09.041Z,99609.09
2022-08-27T07:54:39.382Z,99616.12
2022-08-27T07:57:13.157Z,99610.34
2022-08-27T07:59:45.747Z,99609.50
2022-08-27T08:02:15.926Z,99607.78
2022-08-27T08:04:49.804Z,99608.38
2022-08-27T08:07:19.090Z,99604.00
2022-08-27T08:09:54.056Z,99606.25
2022-08-27T08:12:26.601Z,99615.31
2022-08-27T08:14:59.180Z,99607.03
2022-08-27T08:17:29.646Z,99607.97
2022-08-27T08:20:20.033Z,99614.13
2022-08-27T08:22:49.547Z,99609.41
2022-08-27T08:25:22.052Z,99613.41
2022-08-27T08:27:54.256Z,99615.50
2022-08-27T08:30:24.818Z,99612.25
2022-08-27T08:32:55.840Z,99616.53
2022-08-27T08:35:27.524Z,99614.47
2022-08-27T08:38:04.349Z,99615.78
2022-08-27T08:40:39.763Z,99614.84
2022-08-27T08:43:20.118Z,99612.25
2022-08-27T08:45:52.289Z,99622.66
2022-08-27T08:48:25.008Z,99612.03
2022-08-27T08:51:06.878Z,99621.41
2022-08-27T08:53:53.642Z,99618.53
2022-08-27T08:56:33.249Z,99608.97
2022-08-27T08:59:24.302Z,99609.06
2022-08-27T09:01:56.932Z,99612.81
2022-08-27T09:04:29.833Z,99611.91
2022-08-27T09:07:10.858Z,99612.69
2022-08-27T09:10:02.757Z,99607.22
2022-08-27T09:12:35.306Z,99605.75
2022-08-27T09:15:12.478Z,99601.19
2022-08-27T09:17:46.097Z,99600.34
2022-08-27T09:20:19.236Z,99603.00
2022-08-27T09:23:07.558Z,99598.53
2022-08-27T09:25:42.694Z,99585.62
2022-08-27T09:28:33.261Z,99582.16
2022-08-27T09:31:13.485Z,99585.44
2022-08-27T09:33:56.114Z,99583.59
2022-08-27T09:36:27.411Z,99585.12
2022-08-27T09:39:00.838Z,99586.38
2022-08-27T09:41:36.795Z,99583.97
2022-08-27T09:44:12.755Z,99584.22
2022-08-27T09:46:53.761Z,99578.66
2022-08-27T09:49:24.380Z,99588.59
2022-08-27T09:51:57.514Z,99584.44
2022-08-27T09:54:42.730Z,99586.78
2022-08-27T09:57:16.469Z,99584.50
2022-08-27T09:59:55.768Z,99575.94
2022-08-27T10:02:27.305Z,99581.16
2022-08-27T10:05:04.109Z,99578.25
2022-08-27T10:07:58.318Z,99575.56
2022-08-27T10:10:48.207Z,99577.22
2022-08-27T10:13:42.039Z,99579.09
2022-08-27T10:16:26.820Z,99574.19
2022-08-27T10:19:33.354Z,99575.44
2022-08-27T10:22:19.252Z,99571.53
2022-08-27T10:25:05.245Z,99578.47
2022-08-27T10:28:05.661Z,99576.69
2022-08-27T10:30:57.009Z,99573.81
2022-08-27T10:33:37.079Z,99574.09
2022-08-27T10:36:25.161Z,99575.69
2022-08-27T10:39:39.669Z,99577.19
2022-08-27T10:42:33.541Z,99572.25
2022-08-27T10:45:55.792Z,99568.19
2022-08-27T10:49:18.354Z,99574.91
2022-08-27T10:52:08.108Z,99573.69
2022-08-27T10:54:44.703Z,99572.78
2022-08-27T10:57:45.405Z,99567.37
2022-08-27T11:00:21.816Z,99561.94
2022-08-27T11:03:03.674Z,99563.28
2022-08-27T11:05:37.125Z,99562.44
2022-08-27T11:08:29.916Z,99566.59
2022-08-27T11:11:56.952Z,99559.06
2022-08-27T11:14:08.691Z,99553.16
2022-08-27T11:16:51.762Z,99556.94
2022-08-27T11:19:26.572Z,99563.28
2022-08-27T11:22:26.342Z,99561.63
2022-08-27T11:24:57.685Z,99554.41
2022-08-27T11:27:29.512Z,99552.13
2022-08-27T11:30:16.773Z,99550.41
2022-08-27T11:33:21.398Z,99552.97
2022-08-27T11:35:56.552Z,99553.28
2022-08-27T11:38:29.412Z,99544.63
2022-08-27T11:41:09.323Z,99547.84
2022-08-27T11:43:38.141Z,99540.25
2022-08-27T11:46:08.916Z,99540.28
2022-08-27T11:48:36.984Z,99535.34
2022-08-27T11:51:09.338Z,99536.59
2022-08-27T11:53:54.691Z,99530.94
2022-08-27T11:56:25.824Z,99533.00
2022-08-27T11:58:54.323Z,99520.28
2022-08-27T12:01:28.469Z,99522.16
2022-08-27T12:04:07.429Z,99519.44
2022-08-27T12:06:50.434Z,99513.66
2022-08-27T12:09:22.366Z,99518.47
2022-08-27T12:12:11.687Z,99517.25
2022-08-27T12:14:53.410Z,99513.25
2022-08-27T12:17:46.615Z,99513.84
2022-08-27T12:20:46.357Z,99504.13
2022-08-27T12:23:45.310Z,99502.81
2022-08-27T12:26:17.575Z,99494.62
2022-08-27T12:28:47.843Z,99497.66
2022-08-27T12:31:21.956Z,99495.28
2022-08-27T12:33:57.377Z,99493.75
2022-08-27T12:36:28.380Z,99494.66
2022-08-27T12:38:58.629Z,99491.00
2022-08-27T12:41:43.609Z,99492.41
2022-08-27T12:44:34.539Z,99489.63
2022-08-27T12:47:07.945Z,99485.97
2022-08-27T12:49:46.494Z,99475.87
2022-08-27T12:52:35.676Z,99473.75
2022-08-27T12:55:30.712Z,99480.16
2022-08-27T12:57:59.286Z,99480.69
2022-08-27T13:00:36.137Z,99477.50
2022-08-27T13:03:11.265Z,99476.78
2022-08-27T13:05:45.733Z,99473.59
2022-08-27T13:08:27.938Z,99475.28
2022-08-27T13:10:58.076Z,99465.59
2022-08-27T13:13:26.577Z,99456.69
2022-08-27T13:15:59.625Z,99467.00
2022-08-27T13:18:29.553Z,99472.47
2022-08-27T13:21:33.237Z,99468.69
2022-08-27T13:24:06.566Z,99468.94
2022-08-27T13:26:37.723Z,99465.00
2022-08-27T13:29:13.732Z,99464.56
2022-08-27T13:31:42.638Z,99462.97
2022-08-27T13:34:16.021Z,99466.13
2022-08-27T13:37:02.575Z,99477.41
2022-08-27T13:39:38.352Z,99479.00
2022-08-27T13:42:09.661Z,99469.72
2022-08-27T13:44:40.209Z,99468.66
2022-08-27T13:47:18.551Z,99470.13
2022-08-27T13:49:46.514Z,99463.00
2022-08-27T13:53:05.737Z,99459.91
2022-08-27T13:55:40.197Z,99469.56
2022-08-27T13:58:14.414Z,99462.72
2022-08-27T14:00:43.597Z,99466.91
2022-08-27T14:03:27.122Z,99460.09
2022-08-27T14:05:57.239Z,99459.37
2022-08-27T14:08:31.826Z,99455.50
2022-08-27T14:11:07.186Z,99459.53
2022-08-27T14:13:43.520Z,99465.66
2022-08-27T14:16:29.130Z,99463.91
2022-08-27T14:19:11.563Z,99458.91
2022-08-27T14:21:42.515Z,99455.44
2022-08-27T14:24:12.221Z,99455.34
2022-08-27T14:26:40.425Z,99461.75
2022-08-27T14:29:11.847Z,99459.37
2022-08-27T14:31:41.966Z,99463.31
2022-08-27T14:34:12.164Z,99462.53
2022-08-27T14:36:42.410Z,99463.94
2022-08-27T14:39:11.313Z,99455.25
2022-08-27T14:41:39.814Z,99454.94
2022-08-27T14:44:09.393Z,99447.50
2022-08-27T14:46:41.422Z,99446.53
2022-08-27T14:49:18.155Z,99451.38
2022-08-27T14:51:46.406Z,99451.19
2022-08-27T14:54:16.060Z,99453.16
2022-08-27T14:56:44.743Z,99460.22
2022-08-27T14:59:12.471Z,99461.69
2022-08-27T15:01:41.262Z,99459.19
2022-08-27T15:04:09.581Z,99453.28
2022-08-27T15:06:37.599Z,99462.84
2022-08-27T15:09:06.509Z,99457.38
2022-08-27T15:11:36.655Z,99457.75
2022-08-27T15:14:06.722Z,99464.59
2022-08-27T15:16:39.046Z,99462.69
2022-08-27T15:19:08.855Z,99460.72
2022-08-27T15:21:39.755Z,99467.63
2022-08-27T15:24:28.546Z,99468.41
2022-08-27T15:27:00.120Z,99467.72
2022-08-27T15:29:30.074Z,99472.19
2022-08-27T15:31:58.637Z,99468.69
2022-08-27T15:34:27.653Z,99473.22
2022-08-27T15:36:57.305Z,99471.44
2022-08-27T15:39:28.722Z,99476.09
2022-08-27T15:42:07.268Z,99475.47
2022-08-27T15:44:39.557Z,99468.84
2022-08-27T15:47:07.396Z,99479.59
2022-08-27T15:49:35.728Z,99472.56
2022-08-27T15:52:04.797Z,99478.09
2022-08-27T15:54:33.047Z,99477.25
2022-08-27T15:57:02.574Z,99471.75
2022-08-27T15:59:30.342Z,99468.53
2022-08-27T16:02:00.717Z,99471.47
2022-08-27T16:04:30.192Z,99467.66
2022-08-27T16:06:58.299Z,99469.84
2022-08-27T16:09:28.612Z,99466.34
2022-08-27T16:11:58.636Z,99460.03
2022-08-27T16:14:27.008Z,99472.44
2022-08-27T16:16:56.440Z,99463.41
2022-08-27T16:19:24.976Z,99465.81
2022-08-27T16:21:54.482Z,99469.94
2022-08-27T16:24:23.084Z,99475.84
2022-08-27T16:26:52.013Z,99484.59
2022-08-27T16:29:20.867Z,99479.38
2022-08-27T16:31:50.128Z,99478.34
2022-08-27T16:34:22.809Z,99476.66
2022-08-27T16:36:51.107Z,99472.44
2022-08-27T16:39:20.369Z,99475.81
2022-08-27T16:41:49.423Z,99472.53
2022-08-27T16:44:18.087Z,99481.44
2022-08-27T16:46:46.850Z,99479.41
2022-08-27T16:49:33.468Z,99477.75
2022-08-27T16:52:03.560Z,99480.47
2022-08-27T16:54:34.882Z,99480.47
2022-08-27T16:57:02.926Z,99482.75
2022-08-27T16:59:31.603Z,99475.28
2022-08-27T17:01:59.575Z,99474.41
2022-08-27T17:04:36.713Z,99476.84
2022-08-27T17:07:06.133Z,99485.88
2022-08-27T17:09:35.071Z,99486.38
2022-08-27T17:12:05.454Z,99487.75
2022-08-27T17:14:38.047Z,99487.12
2022-08-27T17:17:06.243Z,99505.22
2022-08-27T17:19:34.922Z,99508.88
2022-08-27T17:22:04.533Z,99506.72
2022-08-27T17:24:32.578Z,99514.94
2022-08-27T17:27:01.410Z,99525.84
2022-08-27T17:29:30.075Z,99529.00
2022-08-27T17:31:58.200Z,99538.53
2022-08-27T17:34:28.866Z,99538.56
2022-08-27T17:37:00.436Z,99543.72
2022-08-27T17:39:31.143Z,99548.31
2022-08-27T17:41:59.855Z,99544.88
2022-08-27T17:44:31.781Z,99545.84
2022-08-27T17:47:03.670Z,99554.06
2022-08-27T17:49:31.975Z,99555.97
2022-08-27T17:52:04.219Z,99562.59
2022-08-27T17:54:41.229Z,99557.75
2022-08-27T17:57:40.970Z,99565.09
2022-08-27T18:00:11.829Z,99566.78
2022-08-27T18:02:48.586Z,99569.38
2022-08-27T18:05:18.833Z,99569.13
2022-08-27T18:07:47.989Z,99566.75
2022-08-27T18:10:18.889Z,99572.06
2022-08-27T18:12:48.142Z,99566.37
2022-08-27T18:15:18.653Z,99561.63
2022-08-27T18:17:53.267Z,99560.66
2022-08-27T18:20:27.901Z,99561.44
2022-08-27T18:22:56.893Z,99566.47
2022-08-27T18:25:29.082Z,99575.22
2022-08-27T18:28:01.909Z,99579.19
2022-08-27T18:30:31.750Z,99575.28
2022-08-27T18:33:02.733Z,99581.44
2022-08-27T18:35:32.738Z,99578.62
2022-08-27T18:38:02.373Z,99575.56
2022-08-27T18:40:38.341Z,99582.44
2022-08-27T18:43:07.205Z,99580.31
2022-08-27T18:45:37.768Z,99583.00
2022-08-27T18:48:16.886Z,99590.19
2022-08-27T18:50:49.087Z,99589.72
2022-08-27T18:53:20.491Z,99587.72
2022-08-27T18:55:53.514Z,99583.41
2022-08-27T18:58:22.796Z,99584.03
2022-08-27T19:00:56.469Z,99587.81
2022-08-27T19:03:39.535Z,99581.16
2022-08-27T19:06:09.683Z,99581.25
2022-08-27T19:08:39.766Z,99581.25
2022-08-27T19:11:10.730Z,99589.59
2022-08-27T19:13:41.812Z,99586.44
2022-08-27T19:16:18.934Z,99585.16
2022-08-27T19:18:48.098Z,99582.87
2022-08-27T19:21:16.566Z,99572.66
2022-08-27T19:23:44.299Z,99579.09
2022-08-27T19:26:19.347Z,99571.97
2022-08-27T19:28:49.729Z,99570.16
2022-08-27T19:31:20.086Z,99570.09
2022-08-27T19:33:49.280Z,99572.50
2022-08-27T19:36:20.176Z,99569.41
2022-08-27T19:38:53.212Z,99572.09
2022-08-27T19:41:27.295Z,99575.81
2022-08-27T19:43:56.768Z,99574.84
2022-08-27T19:46:26.026Z,99572.88
2022-08-27T19:48:55.463Z,99571.75
2022-08-27T19:51:24.647Z,99578.12
2022-08-27T19:53:53.227Z,99574.66
2022-08-27T19:56:21.542Z,99579.44
2022-08-27T19:58:55.235Z,99581.75
2022-08-27T20:01:25.502Z,99586.12
2022-08-27T20:03:58.823Z,99592.66
2022-08-27T20:06:28.188Z,99595.63
2022-08-27T20:08:56.852Z,99594.47
2022-08-27T20:11:25.645Z,99598.59
2022-08-27T20:13:58.700Z,99598.09
2022-08-27T20:16:28.833Z,99597.37
2022-08-27T20:19:02.430Z,99607.88
2022-08-27T20:21:37.260Z,99606.75
2022-08-27T20:24:07.600Z,99608.47
2022-08-27T20:26:39.352Z,99609.16
2022-08-27T20:29:14.934Z,99604.09
2022-08-27T20:32:04.363Z,99599.94
2022-08-27T20:34:35.060Z,99606.47
2022-08-27T20:37:04.007Z,99608.09
2022-08-27T20:39:32.437Z,99610.13
2022-08-27T20:42:01.640Z,99603.09
2022-08-27T20:44:30.202Z,99608.66
2022-08-27T20:47:00.171Z,99615.13
2022-08-27T20:49:30.488Z,99605.47
2022-08-27T20:52:03.984Z,99608.66
2022-08-27T20:54:35.127Z,99614.50
2022-08-27T20:57:04.407Z,99614.03
2022-08-27T20:59:51.505Z,99605.97
2022-08-27T21:02:24.089Z,99598.91
2022-08-27T21:04:52.779Z,99602.63
2022-08-27T21:07:23.118Z,99602.97
2022-08-27T21:09:57.068Z,99615.38
2022-08-27T21:12:28.321Z,99615.34
2022-08-27T21:14:59.295Z,99616.00
2022-08-27T21:17:29.021Z,99615.34
2022-08-27T21:19:57.856Z,99616.16
2022-08-27T21:22:25.631Z,99619.00
2022-08-27T21:24:53.901Z,99621.22
2022-08-27T21:27:22.056Z,99622.84
2022-08-27T21:29:50.550Z,99625.00
2022-08-27T21:32:19.288Z,99630.38
2022-08-27T21:34:49.590Z,99634.63
2022-08-27T21:37:18.521Z,99628.63
2022-08-27T21:39:46.584Z,99631.78
2022-08-27T21:42:15.823Z,99633.41
2022-08-27T21:44:44.772Z,99629.38
2022-08-27T21:47:13.002Z,99628.28
2022-08-27T21:49:42.129Z,99631.59
2022-08-27T21:52:11.892Z,99631.69
2022-08-27T21:54:42.989Z,99630.94
2022-08-27T21:57:14.053Z,99627.94
2022-08-27T21:59:45.941Z,99626.84
2022-08-27T22:02:38.747Z,99631.69
2022-08-27T22:05:09.442Z,99628.13
2022-08-27T22:07:37.318Z,99638.78
2022-08-27T22:10:08.069Z,99628.91
2022-08-27T22:12:38.400Z,99624.06
2022-08-27T22:15:11.448Z,99620.91
2022-08-27T22:17:41.477Z,99626.00
2022-08-27T22:20:15.356Z,99622.38
2022-08-27T22:22:46.241Z,99615.84
2022-08-27T22:25:17.933Z,99614.59
2022-08-27T22:27:47.910Z,99614.19
2022-08-27T22:30:21.143Z,99609.66
2022-08-27T22:32:54.928Z,99619.28
2022-08-27T22:35:29.118Z,99616.78
2022-08-27T22:38:01.294Z,99617.03
2022-08-27T22:40:35.744Z,99616.09
2022-08-27T22:43:09.647Z,99615.47
2022-08-27T22:45:44.391Z,99607.38
2022-08-27T22:48:15.567Z,99614.16
2022-08-27T22:50:51.169Z,99618.59
2022-08-27T22:53:21.768Z,99612.00
2022-08-27T22:55:54.211Z,99619.91
2022-08-27T22:58:25.161Z,99612.72
2022-08-27T23:00:57.819Z,99616.12
2022-08-27T23:03:27.578Z,99620.59
2022-08-27T23:06:00.223Z,99618.34
2022-08-27T23:08:32.701Z,99623.25
2022-08-27T23:11:05.615Z,99625.31
2022-08-27T23:13:35.275Z,99620.87
2022-08-27T23:16:06.467Z,99613.44
2022-08-27T23:18:36.782Z,99614.72
2022-08-27T23:21:14.179Z,99624.25
2022-08-27T23:23:44.328Z,99622.25
2022-08-27T23:26:33.383Z,99623.25
2022-08-27T23:29:04.574Z,99624.38
2022-08-27T23:31:38.357Z,99638.06
2022-08-27T23:34:10.633Z,99687.38
2022-08-27T23:36:42.127Z,99702.84
2022-08-27T23:39:12.019Z,99712.88
2022-08-27T23:41:45.384Z,99724.03
2022-08-27T23:44:16.540Z,99718.50
2022-08-27T23:46:48.940Z,99708.75
2022-08-27T23:49:22.430Z,99723.56
2022-08-27T23:51:53.376Z,99729.25
2022-08-27T23:54:24.494Z,99734.28
2022-08-27T23:56:58.035Z,99733.97
2022-08-27T23:59:30.458Z,99730.81
